Time;durP1;ratioP1;P1;durP2;ratioP2;P2;SDS_P1;SDS_P2;PMS_P1;PMS_P2;Temp;Humidity;BMP_temperature;BMP_pressure;BME280_temperature;BME280_humidity;BME280_pressure;Samples;Min_cycle;Max_cycle;Signal;HPM_P1;HPM_P2
2022/01/22 00:00:08;;;;;;;;;;;19.50;54.80;;;;;;5075252;28;842;-67
2022/01/22 00:02:33;;;;;;;;;;;19.50;54.80;;;;;;5074108;28;801;-68
2022/01/22 00:04:59;;;;;;;;;;;19.50;54.90;;;;;;5067673;28;1025;-68
2022/01/22 00:07:24;;;;;;;;;;;19.50;54.90;;;;;;5068439;28;992;-67
2022/01/22 00:09:59;;;;;;;;;;;19.50;54.90;;;;;;5055084;28;2017;-68
2022/01/22 00:12:56;;;;;;;;;;;19.50;54.90;;;;;;5061064;28;1000;-68
2022/01/22 00:15:13;;;;;;;;;;;19.50;54.90;;;;;;5045273;28;1423;-68
2022/01/22 00:17:39;;;;;;;;;;;19.50;55.00;;;;;;5046080;28;1362;-69
2022/01/22 00:20:04;;;;;;;;;;;19.50;55.00;;;;;;5046104;28;1306;-68
2022/01/22 00:22:32;;;;;;;;;;;19.40;54.90;;;;;;5060209;28;1224;-68
2022/01/22 00:25:00;;;;;;;;;;;19.40;55.00;;;;;;5044379;28;1262;-67
2022/01/22 00:27:26;;;;;;;;;;;19.40;55.00;;;;;;5048037;28;1231;-68
2022/01/22 00:29:51;;;;;;;;;;;19.40;55.00;;;;;;5046098;28;1973;-68
2022/01/22 00:32:16;;;;;;;;;;;19.40;55.00;;;;;;5059608;28;1084;-67
2022/01/22 00:34:42;;;;;;;;;;;19.50;55.00;;;;;;5048604;28;1363;-68
2022/01/22 00:37:08;;;;;;;;;;;19.40;54.90;;;;;;5065772;28;1298;-68
2022/01/22 00:39:34;;;;;;;;;;;19.40;55.00;;;;;;5049461;28;1323;-68
2022/01/22 00:42:00;;;;;;;;;;;19.40;55.00;;;;;;5046050;28;1197;-66
2022/01/22 00:44:26;;;;;;;;;;;19.40;54.90;;;;;;5046715;28;1239;-67
2022/01/22 00:46:51;;;;;;;;;;;19.40;55.00;;;;;;5050678;28;1239;-66
2022/01/22 00:49:17;;;;;;;;;;;19.40;55.00;;;;;;5042413;28;1907;-67
2022/01/22 00:51:42;;;;;;;;;;;19.40;55.00;;;;;;5049676;28;1311;-66
2022/01/22 00:54:07;;;;;;;;;;;19.50;55.00;;;;;;5043849;28;1282;-66
2022/01/22 00:56:33;;;;;;;;;;;19.40;55.00;;;;;;5047263;28;1344;-66
2022/01/22 00:58:58;;;;;;;;;;;19.50;55.00;;;;;;5048795;28;1284;-66
2022/01/22 01:01:24;;;;;;;;;;;19.40;55.00;;;;;;5050958;28;1314;-66
2022/01/22 01:03:49;;;;;;;;;;;19.40;55.00;;;;;;5042760;28;1227;-66
2022/01/22 01:06:15;;;;;;;;;;;19.40;55.00;;;;;;5048344;28;1256;-68
2022/01/22 01:08:40;;;;;;;;;;;19.40;55.00;;;;;;5053148;28;1977;-66
2022/01/22 01:11:06;;;;;;;;;;;19.40;55.00;;;;;;5060597;28;1320;-66
2022/01/22 01:13:37;;;;;;;;;;;19.40;55.00;;;;;;5046567;28;1304;-68
2022/01/22 01:16:16;;;;;;;;;;;19.40;55.00;;;;;;5050078;28;1108;-66
2022/01/22 01:32:30;;;;;;;;;;;19.40;55.10;;;;;;5047874;28;1096;-66
2022/01/22 01:34:57;;;;;;;;;;;19.40;55.10;;;;;;5050365;28;1322;-66
2022/01/22 01:37:23;;;;;;;;;;;19.40;55.10;;;;;;5045255;28;1292;-67
2022/01/22 01:39:52;;;;;;;;;;;19.40;55.20;;;;;;5047963;28;1327;-68
2022/01/22 01:42:31;;;;;;;;;;;19.30;55.10;;;;;;5047213;28;1350;-67
2022/01/22 01:45:00;;;;;;;;;;;19.30;55.20;;;;;;5044629;28;1233;-68
2022/01/22 01:47:25;;;;;;;;;;;19.30;55.10;;;;;;5064189;28;987;-66
2022/01/22 01:49:51;;;;;;;;;;;19.30;55.20;;;;;;5073120;28;1898;-67
2022/01/22 01:52:23;;;;;;;;;;;19.30;55.20;;;;;;5073370;28;1047;-66
2022/01/22 01:55:03;;;;;;;;;;;19.30;55.20;;;;;;5073422;28;1944;-66
2022/01/22 01:57:38;;;;;;;;;;;19.40;55.30;;;;;;5072858;28;1311;-67
2022/01/22 02:00:04;;;;;;;;;;;19.30;55.20;;;;;;5065541;28;986;-67
2022/01/22 02:02:32;;;;;;;;;;;19.40;55.30;;;;;;5066283;28;1437;-67
2022/01/22 02:04:57;;;;;;;;;;;19.30;55.20;;;;;;5067413;28;1070;-67
2022/01/22 02:07:23;;;;;;;;;;;19.40;55.30;;;;;;5051385;28;1279;-67
2022/01/22 02:09:48;;;;;;;;;;;19.30;55.20;;;;;;5052865;28;1911;-67
2022/01/22 02:12:45;;;;;;;;;;;19.30;55.30;;;;;;5053174;28;1326;-67
2022/01/22 02:23:45;;;;;;;;;;;19.30;55.30;;;;;;5053276;28;1123;-68
2022/01/22 02:26:11;;;;;;;;;;;19.30;55.40;;;;;;5052859;28;1010;-68
2022/01/22 02:28:37;;;;;;;;;;;19.30;55.40;;;;;;5051324;28;1902;-68
2022/01/22 02:31:12;;;;;;;;;;;19.30;55.40;;;;;;5052732;28;1279;-68
2022/01/22 02:34:35;;;;;;;;;;;19.30;55.40;;;;;;5051580;28;1344;-68
2022/01/22 02:36:42;;;;;;;;;;;19.30;55.40;;;;;;5042133;28;1408;-68
2022/01/22 02:39:13;;;;;;;;;;;19.30;55.50;;;;;;5052485;28;1357;-68
2022/01/22 02:41:43;;;;;;;;;;;19.30;55.40;;;;;;5051427;28;1290;-68
2022/01/22 02:44:15;;;;;;;;;;;19.30;55.40;;;;;;5051459;28;1420;-67
2022/01/22 02:46:42;;;;;;;;;;;19.30;55.30;;;;;;5052806;28;1381;-68
2022/01/22 02:49:08;;;;;;;;;;;19.30;55.30;;;;;;5056354;28;1974;-66
2022/01/22 02:51:33;;;;;;;;;;;19.40;55.40;;;;;;5056509;28;1360;-68
2022/01/22 02:54:00;;;;;;;;;;;19.30;55.30;;;;;;5056690;28;1412;-69
2022/01/22 02:56:25;;;;;;;;;;;19.30;55.30;;;;;;5056377;28;1308;-67
2022/01/22 02:58:51;;;;;;;;;;;19.30;55.30;;;;;;5056250;28;1375;-69
2022/01/22 03:01:17;;;;;;;;;;;19.30;55.30;;;;;;5056413;28;1272;-69
2022/01/22 03:03:43;;;;;;;;;;;19.30;55.30;;;;;;5055418;28;1298;-69
2022/01/22 03:06:09;;;;;;;;;;;19.30;55.30;;;;;;5060257;28;1289;-69
2022/01/22 03:08:34;;;;;;;;;;;19.30;55.30;;;;;;5076074;28;1927;-68
2022/01/22 03:11:04;;;;;;;;;;;19.30;55.30;;;;;;5075998;28;1087;-69
2022/01/22 03:14:21;;;;;;;;;;;19.30;55.30;;;;;;5075256;28;1278;-68
2022/01/22 03:16:43;;;;;;;;;;;19.30;55.30;;;;;;5075077;28;1330;-67
2022/01/22 03:19:16;;;;;;;;;;;19.30;55.30;;;;;;5075856;28;1212;-67
2022/01/22 03:21:55;;;;;;;;;;;19.30;55.30;;;;;;5075123;28;1392;-67
2022/01/22 03:27:23;;;;;;;;;;;19.30;55.30;;;;;;5075907;28;1333;-68
2022/01/22 03:29:50;;;;;;;;;;;19.30;55.30;;;;;;5063624;28;1895;-67
2022/01/22 03:32:16;;;;;;;;;;;19.30;55.40;;;;;;5055870;28;1309;-68
2022/01/22 03:34:53;;;;;;;;;;;19.30;55.40;;;;;;5055941;28;1260;-68
2022/01/22 03:37:19;;;;;;;;;;;19.30;55.40;;;;;;5042765;28;1340;-68
2022/01/22 03:39:44;;;;;;;;;;;19.30;55.50;;;;;;5055612;28;1257;-67
2022/01/22 03:42:09;;;;;;;;;;;19.30;55.40;;;;;;5055468;28;1061;-68
2022/01/22 03:44:35;;;;;;;;;;;19.20;55.40;;;;;;5055734;28;1146;-67
2022/01/22 03:47:00;;;;;;;;;;;19.30;55.50;;;;;;5055486;28;1062;-67
2022/01/22 03:49:26;;;;;;;;;;;19.20;55.40;;;;;;5055300;28;1906;-67
2022/01/22 03:51:51;;;;;;;;;;;19.30;55.50;;;;;;5055682;28;1664;-67
2022/01/22 03:54:17;;;;;;;;;;;19.20;55.50;;;;;;5055512;28;1260;-67
2022/01/22 03:56:45;;;;;;;;;;;19.30;55.50;;;;;;5055400;28;1280;-67
2022/01/22 03:59:11;;;;;;;;;;;19.30;55.50;;;;;;5054317;28;1308;-67
2022/01/22 04:04:15;;;;;;;;;;;19.30;56.10;;;;;;5051159;28;2301;-69
2022/01/22 04:09:23;;;;;;;;;;;19.30;55.50;;;;;;5054435;28;1989;-68
2022/01/22 04:11:48;;;;;;;;;;;19.30;55.50;;;;;;5051172;28;1317;-69
2022/01/22 04:14:34;;;;;;;;;;;19.30;55.50;;;;;;5035374;28;1496;-68
2022/01/22 04:17:20;;;;;;;;;;;19.30;55.50;;;;;;5035000;28;1579;-69
2022/01/22 04:25:20;;;;;;;;;;;19.30;55.50;;;;;;5034940;28;1621;-70
2022/01/22 04:27:46;;;;;;;;;;;19.30;55.50;;;;;;5033774;28;1945;-68
2022/01/22 04:30:12;;;;;;;;;;;19.20;55.50;;;;;;5034013;28;1465;-69
2022/01/22 04:32:37;;;;;;;;;;;19.20;55.50;;;;;;5017099;28;1296;-69
2022/01/22 04:35:03;;;;;;;;;;;19.20;55.50;;;;;;5034747;28;1373;-69
2022/01/22 04:37:28;;;;;;;;;;;19.20;55.50;;;;;;5026752;28;1389;-68
2022/01/22 04:39:54;;;;;;;;;;;19.20;55.50;;;;;;5034352;28;1401;-71
2022/01/22 04:42:19;;;;;;;;;;;19.20;55.50;;;;;;5034887;28;1512;-68
2022/01/22 04:44:55;;;;;;;;;;;19.20;55.50;;;;;;5034672;28;1677;-68
2022/01/22 04:48:14;;;;;;;;;;;19.20;55.60;;;;;;5017594;28;1641;-68
2022/01/22 04:55:34;;;;;;;;;;;19.20;55.50;;;;;;5034475;28;772;-69
2022/01/22 04:58:03;;;;;;;;;;;19.20;55.60;;;;;;5032993;28;977;-68
2022/01/22 05:00:28;;;;;;;;;;;19.20;55.60;;;;;;5034141;28;1154;-72
2022/01/22 05:02:54;;;;;;;;;;;19.20;55.60;;;;;;5034466;28;1432;-68
2022/01/22 05:05:19;;;;;;;;;;;19.20;55.60;;;;;;5016468;28;1710;-69
2022/01/22 05:07:45;;;;;;;;;;;19.20;55.60;;;;;;5033095;28;1902;-71
2022/01/22 05:10:10;;;;;;;;;;;19.20;55.60;;;;;;5033380;28;1013;-68
2022/01/22 05:12:36;;;;;;;;;;;19.20;55.60;;;;;;5033432;28;1270;-68
2022/01/22 05:15:01;;;;;;;;;;;19.20;55.60;;;;;;5034048;28;1386;-69
2022/01/22 05:17:26;;;;;;;;;;;19.30;55.60;;;;;;5015156;28;1587;-68
2022/01/22 05:20:08;;;;;;;;;;;19.30;55.70;;;;;;5034039;28;1660;-68
2022/01/22 05:25:40;;;;;;;;;;;19.40;55.30;;;;;;4989873;28;1813;-70
2022/01/22 05:30:53;;;;;;;;;;;19.60;55.00;;;;;;5033542;28;1834;-67
2022/01/22 05:36:54;;;;;;;;;;;19.60;54.80;;;;;;5019670;28;1868;-68
2022/01/22 05:38:57;;;;;;;;;;;19.70;54.50;;;;;;5010038;28;1179;-69
2022/01/22 05:41:22;;;;;;;;;;;19.80;54.40;;;;;;5006098;28;1403;-69
2022/01/22 05:43:48;;;;;;;;;;;19.80;54.30;;;;;;5026501;28;1314;-71
2022/01/22 05:46:13;;;;;;;;;;;19.80;54.20;;;;;;5024848;28;1373;-69
2022/01/22 05:48:39;;;;;;;;;;;19.80;54.10;;;;;;5032186;28;1901;-68
2022/01/22 05:51:05;;;;;;;;;;;19.90;54.10;;;;;;5015785;28;931;-70
2022/01/22 06:01:15;;;;;;;;;;;19.90;54.00;;;;;;5012889;28;1117;-69
2022/01/22 06:03:40;;;;;;;;;;;19.90;53.90;;;;;;5009395;28;1267;-67
2022/01/22 06:06:06;;;;;;;;;;;19.90;53.90;;;;;;5023966;28;1357;-68
2022/01/22 06:08:34;;;;;;;;;;;20.00;53.90;;;;;;5030078;28;1914;-67
2022/01/22 06:11:07;;;;;;;;;;;19.90;53.80;;;;;;5032369;28;1347;-66
2022/01/22 06:13:43;;;;;;;;;;;20.00;53.90;;;;;;5007879;28;1437;-67
2022/01/22 06:16:22;;;;;;;;;;;20.00;53.80;;;;;;5016116;28;1257;-69
2022/01/22 06:18:47;;;;;;;;;;;20.00;53.80;;;;;;5014858;28;1303;-68
2022/01/22 06:21:13;;;;;;;;;;;20.00;53.80;;;;;;5029742;28;1380;-66
2022/01/22 06:23:38;;;;;;;;;;;20.00;53.80;;;;;;5032044;28;1351;-71
2022/01/22 06:26:04;;;;;;;;;;;20.00;53.80;;;;;;5014612;28;1391;-70
2022/01/22 06:28:30;;;;;;;;;;;20.00;53.80;;;;;;5031055;28;1976;-71
2022/01/22 06:30:55;;;;;;;;;;;20.00;53.80;;;;;;4997669;28;1289;-70
2022/01/22 06:33:21;;;;;;;;;;;20.00;53.80;;;;;;5010944;28;1418;-70
2022/01/22 06:35:46;;;;;;;;;;;20.00;53.80;;;;;;5013008;28;1381;-71
2022/01/22 06:38:12;;;;;;;;;;;20.00;53.80;;;;;;5014289;28;1625;-71
2022/01/22 06:43:04;;;;;;;;;;;20.00;53.80;;;;;;5014424;28;1449;-70
2022/01/22 06:45:29;;;;;;;;;;;20.00;53.80;;;;;;5014445;28;1078;-69
2022/01/22 06:47:55;;;;;;;;;;;20.00;53.80;;;;;;5031923;28;1961;-70
2022/01/22 06:50:21;;;;;;;;;;;20.00;53.80;;;;;;5032060;28;1548;-69
2022/01/22 06:52:47;;;;;;;;;;;19.90;53.80;;;;;;5031962;28;1651;-71
2022/01/22 06:55:15;;;;;;;;;;;19.90;53.80;;;;;;5032066;28;1777;-69
2022/01/22 06:57:41;;;;;;;;;;;20.00;53.80;;;;;;5031531;28;1362;-70
2022/01/22 07:00:06;;;;;;;;;;;20.00;53.90;;;;;;5031546;28;1594;-69
2022/01/22 07:02:32;;;;;;;;;;;19.90;53.80;;;;;;5014410;28;1650;-69
2022/01/22 07:04:57;;;;;;;;;;;19.90;53.80;;;;;;5031787;28;1270;-71
2022/01/22 07:07:23;;;;;;;;;;;19.90;53.80;;;;;;5014021;28;1612;-69
2022/01/22 07:09:48;;;;;;;;;;;19.90;53.90;;;;;;5032003;28;1894;-70
2022/01/22 07:12:14;;;;;;;;;;;19.90;53.80;;;;;;5031791;28;1366;-72
2022/01/22 07:14:41;;;;;;;;;;;20.00;53.90;;;;;;5031594;28;1438;-71
2022/01/22 07:17:07;;;;;;;;;;;20.00;53.90;;;;;;5031576;28;1736;-70
2022/01/22 07:19:38;;;;;;;;;;;19.90;53.90;;;;;;5013775;28;1646;-71
2022/01/22 07:22:09;;;;;;;;;;;19.90;53.90;;;;;;5031760;28;1327;-71
2022/01/22 07:24:40;;;;;;;;;;;19.90;53.90;;;;;;5032093;28;1830;-70
2022/01/22 07:27:05;;;;;;;;;;;19.90;53.90;;;;;;5031365;28;1505;-70
2022/01/22 07:29:31;;;;;;;;;;;20.00;54.00;;;;;;5014081;28;2023;-71
2022/01/22 07:32:00;;;;;;;;;;;19.90;53.90;;;;;;5031287;28;1634;-72
2022/01/22 07:34:26;;;;;;;;;;;19.90;53.90;;;;;;5033093;28;1338;-70
2022/01/22 07:36:51;;;;;;;;;;;19.90;53.90;;;;;;5036481;28;1382;-71
2022/01/22 07:39:17;;;;;;;;;;;19.90;53.90;;;;;;5017328;28;1598;-70
2022/01/22 07:41:42;;;;;;;;;;;19.90;53.90;;;;;;5034733;28;1653;-69
2022/01/22 07:44:08;;;;;;;;;;;19.90;53.90;;;;;;5035671;28;1673;-68
2022/01/22 07:46:33;;;;;;;;;;;19.90;54.50;;;;;;5035219;28;1421;-70
2022/01/22 07:48:59;;;;;;;;;;;19.90;54.00;;;;;;5034394;28;1894;-70
2022/01/22 07:51:24;;;;;;;;;;;19.90;54.00;;;;;;5035832;28;1380;-71
2022/01/22 07:53:49;;;;;;;;;;;19.90;54.00;;;;;;5035410;28;1382;-70
2022/01/22 07:56:15;;;;;;;;;;;19.90;54.00;;;;;;5035054;28;1125;-70
2022/01/22 07:58:40;;;;;;;;;;;19.90;54.00;;;;;;5034020;28;1232;-71
2022/01/22 08:01:06;;;;;;;;;;;19.90;54.00;;;;;;5034691;28;1605;-71
2022/01/22 08:03:31;;;;;;;;;;;20.10;53.90;;;;;;5034763;28;1427;-70
2022/01/22 08:05:57;;;;;;;;;;;20.10;53.80;;;;;;5034707;28;1350;-70
2022/01/22 08:08:22;;;;;;;;;;;20.30;53.70;;;;;;5034359;28;1914;-70
2022/01/22 08:10:47;;;;;;;;;;;20.30;54.10;;;;;;5034296;28;1446;-69
2022/01/22 08:13:13;;;;;;;;;;;20.50;53.30;;;;;;5017154;28;1635;-70
2022/01/22 08:15:38;;;;;;;;;;;20.60;53.10;;;;;;5034661;28;1713;-70
2022/01/22 08:18:05;;;;;;;;;;;20.70;52.80;;;;;;5034080;28;1664;-71
2022/01/22 08:20:31;;;;;;;;;;;20.80;52.60;;;;;;5017308;28;1377;-71
2022/01/22 08:22:56;;;;;;;;;;;20.90;52.40;;;;;;5034782;28;1702;-70
2022/01/22 08:25:22;;;;;;;;;;;21.00;52.20;;;;;;5017055;28;1419;-70
2022/01/22 08:30:34;;;;;;;;;;;21.20;51.80;;;;;;5020122;28;1783;-69
2022/01/22 08:35:53;;;;;;;;;;;21.30;51.40;;;;;;5020011;28;1277;-70
2022/01/22 08:38:21;;;;;;;;;;;21.40;51.30;;;;;;5017788;28;1442;-71
2022/01/22 08:40:47;;;;;;;;;;;21.50;51.20;;;;;;5033786;28;1380;-69
2022/01/22 08:43:12;;;;;;;;;;;21.50;51.10;;;;;;5034088;28;1729;-71
2022/01/22 08:45:39;;;;;;;;;;;21.50;51.00;;;;;;5016641;28;1381;-70
2022/01/22 08:48:04;;;;;;;;;;;21.60;51.00;;;;;;5033348;28;1918;-70
2022/01/22 08:50:30;;;;;;;;;;;21.60;50.90;;;;;;5034075;28;1590;-70
2022/01/22 08:52:56;;;;;;;;;;;21.60;50.90;;;;;;5034257;28;1690;-69
2022/01/22 08:55:21;;;;;;;;;;;21.60;51.00;;;;;;5034614;28;1337;-71
2022/01/22 08:57:49;;;;;;;;;;;21.60;51.00;;;;;;5033425;28;1671;-70
2022/01/22 09:00:16;;;;;;;;;;;21.60;51.00;;;;;;5034296;28;1659;-70
2022/01/22 09:02:41;;;;;;;;;;;21.60;51.00;;;;;;5015703;28;1727;-70
2022/01/22 09:05:07;;;;;;;;;;;21.60;51.10;;;;;;5033913;28;1662;-70
2022/01/22 09:07:32;;;;;;;;;;;21.60;51.10;;;;;;5015577;28;1280;-69
2022/01/22 09:09:57;;;;;;;;;;;21.60;51.10;;;;;;5013071;28;1965;-70
2022/01/22 09:12:23;;;;;;;;;;;21.60;51.10;;;;;;5025995;28;1407;-71
2022/01/22 09:14:48;;;;;;;;;;;21.60;51.10;;;;;;5008645;28;1221;-70
2022/01/22 09:17:14;;;;;;;;;;;21.60;51.10;;;;;;5026700;28;1248;-69
2022/01/22 09:19:39;;;;;;;;;;;21.50;51.10;;;;;;5008562;28;1332;-68
2022/01/22 09:22:06;;;;;;;;;;;21.60;51.10;;;;;;5008145;28;1477;-67
2022/01/22 09:24:32;;;;;;;;;;;21.50;51.10;;;;;;5024670;28;1378;-69
2022/01/22 09:26:59;;;;;;;;;;;21.50;51.20;;;;;;5026938;28;1252;-69
2022/01/22 09:29:25;;;;;;;;;;;21.50;51.20;;;;;;5007819;28;1971;-69
2022/01/22 09:31:50;;;;;;;;;;;21.40;51.20;;;;;;5024626;28;1362;-70
2022/01/22 09:34:15;;;;;;;;;;;21.40;51.30;;;;;;5026384;28;1252;-69
2022/01/22 09:36:41;;;;;;;;;;;21.40;51.40;;;;;;5025858;28;1201;-69
2022/01/22 09:39:06;;;;;;;;;;;21.40;51.40;;;;;;4988979;28;1260;-69
2022/01/22 09:41:32;;;;;;;;;;;21.40;51.50;;;;;;5033437;28;1349;-70
2022/01/22 09:43:57;;;;;;;;;;;21.40;51.60;;;;;;5033179;28;1087;-68
2022/01/22 09:46:24;;;;;;;;;;;21.30;51.60;;;;;;5032981;28;1464;-68
2022/01/22 09:48:49;;;;;;;;;;;21.30;51.60;;;;;;5014255;28;1906;-70
2022/01/22 09:51:15;;;;;;;;;;;21.30;51.70;;;;;;5015294;28;1312;-71
2022/01/22 09:53:40;;;;;;;;;;;21.20;51.70;;;;;;5033042;28;1416;-70
2022/01/22 09:56:06;;;;;;;;;;;21.20;51.80;;;;;;5015305;28;1352;-70
2022/01/22 09:58:31;;;;;;;;;;;21.20;51.80;;;;;;5032574;28;1686;-70
2022/01/22 10:01:15;;;;;;;;;;;21.20;51.90;;;;;;5031307;28;1932;-70
2022/01/22 10:03:41;;;;;;;;;;;21.20;52.00;;;;;;5033179;28;1447;-68
2022/01/22 10:06:12;;;;;;;;;;;21.10;52.00;;;;;;5032886;28;1182;-68
2022/01/22 10:08:39;;;;;;;;;;;21.10;52.00;;;;;;5032249;28;1914;-68
2022/01/22 10:11:05;;;;;;;;;;;21.10;52.10;;;;;;5032007;28;1052;-68
2022/01/22 10:13:38;;;;;;;;;;;21.10;52.10;;;;;;5015156;28;1373;-67
2022/01/22 10:16:10;;;;;;;;;;;21.10;52.20;;;;;;5032409;28;1213;-68
2022/01/22 10:18:36;;;;;;;;;;;21.10;52.20;;;;;;5031961;28;1119;-68
2022/01/22 10:21:02;;;;;;;;;;;21.00;52.20;;;;;;5032449;28;1359;-68
2022/01/22 10:23:27;;;;;;;;;;;21.10;52.30;;;;;;5014734;28;1452;-68
2022/01/22 10:26:02;;;;;;;;;;;21.00;52.40;;;;;;5032128;28;1319;-67
2022/01/22 10:28:29;;;;;;;;;;;21.00;52.40;;;;;;5013912;28;1962;-67
2022/01/22 10:30:58;;;;;;;;;;;21.00;52.40;;;;;;5017001;28;1948;-67
2022/01/22 10:33:33;;;;;;;;;;;21.00;52.50;;;;;;5027600;28;1170;-67
2022/01/22 10:36:19;;;;;;;;;;;21.00;52.50;;;;;;5024103;28;1131;-67
2022/01/22 10:38:45;;;;;;;;;;;21.00;52.50;;;;;;5031647;28;1344;-67
2022/01/22 10:41:11;;;;;;;;;;;21.00;52.50;;;;;;5032216;28;1297;-66
2022/01/22 10:43:42;;;;;;;;;;;21.00;52.40;;;;;;5014575;28;1345;-67
2022/01/22 10:48:43;;;;;;;;;;;21.10;52.30;;;;;;5031490;28;2015;-66
2022/01/22 10:51:10;;;;;;;;;;;21.10;52.30;;;;;;5014606;28;1431;-66
2022/01/22 10:53:35;;;;;;;;;;;21.10;52.20;;;;;;5014361;28;1409;-65
2022/01/22 10:56:02;;;;;;;;;;;21.20;52.10;;;;;;5031812;28;1123;-68
2022/01/22 10:58:28;;;;;;;;;;;21.20;52.10;;;;;;5014254;28;1058;-66
2022/01/22 11:01:00;;;;;;;;;;;21.20;52.10;;;;;;5023673;28;1634;-66
2022/01/22 11:03:28;;;;;;;;;;;21.20;52.00;;;;;;5026840;28;1275;-66
2022/01/22 11:05:54;;;;;;;;;;;21.20;52.00;;;;;;5012851;28;1376;-66
2022/01/22 11:08:19;;;;;;;;;;;21.20;52.00;;;;;;5014229;28;1909;-66
2022/01/22 11:10:45;;;;;;;;;;;21.20;52.00;;;;;;5017696;28;1307;-66
2022/01/22 11:13:11;;;;;;;;;;;21.20;52.00;;;;;;5034848;28;1347;-66
2022/01/22 11:15:36;;;;;;;;;;;21.20;52.00;;;;;;5034651;28;1077;-67
2022/01/22 11:18:02;;;;;;;;;;;21.20;52.00;;;;;;5035033;28;1359;-66
2022/01/22 11:20:27;;;;;;;;;;;21.20;52.10;;;;;;5034842;28;1078;-66
2022/01/22 11:22:52;;;;;;;;;;;21.20;52.10;;;;;;5017046;28;1303;-66
2022/01/22 11:25:19;;;;;;;;;;;21.20;52.10;;;;;;5035021;28;937;-67
2022/01/22 11:27:44;;;;;;;;;;;21.20;52.10;;;;;;5034504;28;1288;-68
2022/01/22 11:30:10;;;;;;;;;;;21.10;52.20;;;;;;5017553;28;1914;-68
2022/01/22 11:32:36;;;;;;;;;;;21.10;52.20;;;;;;5016676;28;1288;-68
2022/01/22 11:35:02;;;;;;;;;;;21.20;52.20;;;;;;5013677;28;1535;-67
2022/01/22 11:37:29;;;;;;;;;;;21.10;52.30;;;;;;5034395;28;1384;-67
2022/01/22 11:40:11;;;;;;;;;;;21.10;52.30;;;;;;5018111;28;1348;-66
2022/01/22 11:43:09;;;;;;;;;;;21.10;52.30;;;;;;5035545;28;1292;-68
2022/01/22 11:45:40;;;;;;;;;;;21.10;52.40;;;;;;5035111;28;1099;-67
2022/01/22 11:48:16;;;;;;;;;;;21.10;52.40;;;;;;5034696;28;1898;-67
2022/01/22 11:50:42;;;;;;;;;;;21.00;52.30;;;;;;5035127;28;1049;-67
2022/01/22 11:53:20;;;;;;;;;;;21.00;52.40;;;;;;5034915;28;1388;-67
2022/01/22 11:56:04;;;;;;;;;;;21.00;52.50;;;;;;5035494;28;1441;-66
2022/01/22 11:58:30;;;;;;;;;;;21.00;52.50;;;;;;5034995;28;1248;-67
2022/01/22 12:00:55;;;;;;;;;;;21.00;52.50;;;;;;5035146;28;1427;-67
2022/01/22 12:03:21;;;;;;;;;;;21.00;52.60;;;;;;5034383;28;1267;-67
2022/01/22 12:05:52;;;;;;;;;;;20.90;52.50;;;;;;5034951;28;1067;-67
2022/01/22 12:08:18;;;;;;;;;;;20.90;52.60;;;;;;5034228;28;1902;-67
2022/01/22 12:14:26;;;;;;;;;;;20.90;52.60;;;;;;5016892;28;1285;-68
2022/01/22 12:16:39;;;;;;;;;;;20.90;52.70;;;;;;5034561;28;1065;-68
2022/01/22 12:19:09;;;;;;;;;;;20.90;52.60;;;;;;5016836;28;1420;-67
2022/01/22 12:21:36;;;;;;;;;;;21.00;52.60;;;;;;5034309;28;1198;-68
2022/01/22 12:24:02;;;;;;;;;;;21.00;52.60;;;;;;5015168;28;2406;-68
2022/01/22 12:26:36;;;;;;;;;;;21.00;52.50;;;;;;5029938;28;2206;-67
2022/01/22 12:29:02;;;;;;;;;;;21.10;52.50;;;;;;5030641;28;1906;-67
2022/01/22 12:31:28;;;;;;;;;;;21.10;53.00;;;;;;5007903;28;1402;-67
2022/01/22 12:33:53;;;;;;;;;;;21.10;52.40;;;;;;5034628;28;1192;-67
2022/01/22 12:36:28;;;;;;;;;;;21.10;52.30;;;;;;5034572;28;1398;-67
2022/01/22 12:38:57;;;;;;;;;;;21.20;52.30;;;;;;5033993;28;941;-67
2022/01/22 12:41:47;;;;;;;;;;;21.20;52.20;;;;;;5016536;28;1384;-67
2022/01/22 12:44:25;;;;;;;;;;;21.20;52.20;;;;;;5013654;28;1397;-67
2022/01/22 12:46:50;;;;;;;;;;;21.20;52.20;;;;;;5026740;28;1307;-67
2022/01/22 12:49:16;;;;;;;;;;;21.20;52.10;;;;;;5027377;28;1958;-67
2022/01/22 12:51:41;;;;;;;;;;;21.20;52.10;;;;;;5029014;28;1349;-68
2022/01/22 12:54:07;;;;;;;;;;;21.20;52.10;;;;;;5007797;28;1248;-67
2022/01/22 12:59:01;;;;;;;;;;;21.20;52.10;;;;;;5024958;28;1216;-69
2022/01/22 13:01:29;;;;;;;;;;;21.20;52.10;;;;;;5027281;28;1485;-69
2022/01/22 13:03:55;;;;;;;;;;;21.20;52.10;;;;;;5026194;28;1184;-68
2022/01/22 13:06:25;;;;;;;;;;;21.20;52.10;;;;;;5015483;28;1693;-70
2022/01/22 13:08:54;;;;;;;;;;;21.20;52.10;;;;;;5032711;28;1955;-70
2022/01/22 13:11:23;;;;;;;;;;;21.20;52.10;;;;;;5025332;28;1022;-69
2022/01/22 13:13:49;;;;;;;;;;;21.20;52.10;;;;;;5032306;28;1344;-70
2022/01/22 13:16:17;;;;;;;;;;;21.20;52.20;;;;;;5032376;28;1397;-70
2022/01/22 13:19:00;;;;;;;;;;;21.20;52.20;;;;;;5031480;28;1305;-70
2022/01/22 13:21:26;;;;;;;;;;;21.20;52.20;;;;;;5032104;28;1262;-71
2022/01/22 13:24:08;;;;;;;;;;;21.10;52.20;;;;;;5014787;28;1327;-71
2022/01/22 13:26:38;;;;;;;;;;;21.10;52.30;;;;;;5007218;28;1192;-70
2022/01/22 13:29:16;;;;;;;;;;;21.10;52.30;;;;;;5013970;28;1907;-68
2022/01/22 13:31:54;;;;;;;;;;;21.10;52.40;;;;;;5030774;28;1272;-68
2022/01/22 13:34:30;;;;;;;;;;;21.10;52.40;;;;;;5031708;28;1190;-69
2022/01/22 13:37:33;;;;;;;;;;;21.10;52.50;;;;;;5032602;28;1283;-70
2022/01/22 13:47:39;;;;;;;;;;;21.00;52.60;;;;;;5031931;28;1264;-69
2022/01/22 13:47:52;;;;;;;;;;;21.00;52.60;;;;;;5028662;28;1415;-69
2022/01/22 13:50:17;;;;;;;;;;;21.00;52.60;;;;;;5014505;28;1902;-68
2022/01/22 13:52:44;;;;;;;;;;;21.00;52.70;;;;;;5014261;28;1358;-68
2022/01/22 13:55:10;;;;;;;;;;;20.90;52.60;;;;;;5014296;28;1334;-69
2022/01/22 13:57:36;;;;;;;;;;;20.90;52.70;;;;;;5013443;28;1284;-68
2022/01/22 14:00:07;;;;;;;;;;;20.90;52.70;;;;;;5032019;28;1123;-68
2022/01/22 14:02:52;;;;;;;;;;;20.90;52.70;;;;;;4983857;28;1326;-68
2022/01/22 14:05:17;;;;;;;;;;;20.90;52.80;;;;;;5017021;28;1089;-68
2022/01/22 14:07:48;;;;;;;;;;;20.90;52.80;;;;;;5013193;28;1257;-68
2022/01/22 14:10:14;;;;;;;;;;;20.90;52.80;;;;;;5031790;28;1965;-68
2022/01/22 14:12:41;;;;;;;;;;;20.90;52.80;;;;;;5031529;28;1366;-68
2022/01/22 14:15:10;;;;;;;;;;;20.80;52.80;;;;;;5027385;28;2185;-71
2022/01/22 14:17:38;;;;;;;;;;;20.80;52.80;;;;;;5028981;28;1212;-70
2022/01/22 14:20:08;;;;;;;;;;;20.90;53.00;;;;;;4994918;28;1403;-70
2022/01/22 14:23:06;;;;;;;;;;;20.80;53.00;;;;;;5014757;28;1367;-70
2022/01/22 14:25:32;;;;;;;;;;;20.80;52.90;;;;;;4975548;28;2062;-68
2022/01/22 14:27:58;;;;;;;;;;;20.80;52.90;;;;;;5005362;28;1087;-68
2022/01/22 14:30:40;;;;;;;;;;;20.80;52.90;;;;;;5021767;28;1899;-68
2022/01/22 14:33:06;;;;;;;;;;;20.80;52.90;;;;;;5032485;28;1205;-68
2022/01/22 14:35:32;;;;;;;;;;;20.70;52.90;;;;;;5014914;28;1368;-69
2022/01/22 14:38:17;;;;;;;;;;;20.80;53.00;;;;;;5014427;28;1388;-68
2022/01/22 14:46:11;;;;;;;;;;;20.70;53.10;;;;;;5007729;28;1105;-67
2022/01/22 14:48:36;;;;;;;;;;;20.70;53.10;;;;;;5011082;28;1914;-68
2022/01/22 14:51:01;;;;;;;;;;;20.70;53.10;;;;;;4992809;28;1304;-68
2022/01/22 14:53:27;;;;;;;;;;;20.70;53.10;;;;;;5012345;28;1407;-68
2022/01/22 14:55:59;;;;;;;;;;;20.70;53.10;;;;;;5028537;28;1279;-67
2022/01/22 14:58:24;;;;;;;;;;;20.70;53.20;;;;;;5027962;28;1706;-67
2022/01/22 15:00:50;;;;;;;;;;;20.70;53.20;;;;;;5025532;28;1217;-68
2022/01/22 15:03:15;;;;;;;;;;;20.60;53.10;;;;;;5029670;28;1463;-67
2022/01/22 15:05:43;;;;;;;;;;;20.70;53.20;;;;;;5024926;28;1253;-68
2022/01/22 15:08:08;;;;;;;;;;;20.60;53.20;;;;;;5025522;28;1910;-68
2022/01/22 15:10:34;;;;;;;;;;;20.60;53.20;;;;;;5034922;28;1257;-68
2022/01/22 15:12:59;;;;;;;;;;;20.60;53.30;;;;;;5022439;28;1426;-68
2022/01/22 15:15:30;;;;;;;;;;;20.60;53.30;;;;;;5034574;28;1386;-68
2022/01/22 15:18:09;;;;;;;;;;;20.60;53.30;;;;;;5034144;28;1039;-69
2022/01/22 15:20:34;;;;;;;;;;;20.60;53.30;;;;;;5034784;28;1322;-68
2022/01/22 15:23:00;;;;;;;;;;;20.60;53.30;;;;;;5016938;28;1313;-68
2022/01/22 15:25:25;;;;;;;;;;;20.60;53.40;;;;;;5034209;28;1070;-68
2022/01/22 15:27:53;;;;;;;;;;;20.60;53.40;;;;;;5034084;28;1076;-68
2022/01/22 15:30:22;;;;;;;;;;;20.60;53.40;;;;;;5020492;28;1961;-68
2022/01/22 15:33:00;;;;;;;;;;;20.60;53.40;;;;;;5016459;28;1287;-68
2022/01/22 15:35:25;;;;;;;;;;;20.60;53.40;;;;;;5018195;28;1077;-69
2022/01/22 15:37:52;;;;;;;;;;;20.60;53.40;;;;;;5034132;28;1327;-68
2022/01/22 15:40:23;;;;;;;;;;;20.50;53.40;;;;;;5035351;28;1287;-68
2022/01/22 15:42:48;;;;;;;;;;;20.50;53.50;;;;;;5016713;28;1311;-68
2022/01/22 15:45:14;;;;;;;;;;;20.50;53.40;;;;;;5033404;28;1255;-68
2022/01/22 15:47:39;;;;;;;;;;;20.50;53.50;;;;;;5015660;28;1347;-69
2022/01/22 15:50:05;;;;;;;;;;;20.50;53.50;;;;;;5016068;28;1957;-68
2022/01/22 15:52:31;;;;;;;;;;;20.50;53.50;;;;;;5033768;28;1365;-68
2022/01/22 15:54:57;;;;;;;;;;;20.50;53.50;;;;;;5032895;28;1084;-68
2022/01/22 15:57:22;;;;;;;;;;;20.50;53.60;;;;;;5015509;28;1320;-68
2022/01/22 15:59:48;;;;;;;;;;;20.50;53.60;;;;;;5033181;28;1052;-68
2022/01/22 16:02:13;;;;;;;;;;;20.40;53.60;;;;;;5033504;28;1375;-68